sensor_id;sensor_type;location;lat;lon;timestamp;P1;durP1;ratioP1;P2;durP2;ratioP2
35298;SDS011;21415;48.054;16.646;2022-09-14T00:02:05;1.75;;;1.60;;
35298;SDS011;21415;48.054;16.646;2022-09-14T00:04:31;2.38;;;1.50;;
35298;SDS011;21415;48.054;16.646;2022-09-14T00:06:57;1.90;;;1.80;;
35298;SDS011;21415;48.054;16.646;2022-09-14T00:09:23;2.30;;;1.67;;
35298;SDS011;21415;48.054;16.646;2022-09-14T00:11:50;2.05;;;1.85;;
35298;SDS011;21415;48.054;16.646;2022-09-14T00:14:17;2.15;;;1.80;;
35298;SDS011;21415;48.054;16.646;2022-09-14T00:16:43;2.33;;;2.00;;
35298;SDS011;21415;48.054;16.646;2022-09-14T00:19:15;2.00;;;1.58;;
35298;SDS011;21415;48.054;16.646;2022-09-14T00:21:48;2.83;;;1.52;;
35298;SDS011;21415;48.054;16.646;2022-09-14T00:24:15;1.95;;;1.73;;
35298;SDS011;21415;48.054;16.646;2022-09-14T00:26:41;2.03;;;1.52;;
35298;SDS011;21415;48.054;16.646;2022-09-14T00:29:07;2.92;;;1.77;;
35298;SDS011;21415;48.054;16.646;2022-09-14T00:31:35;1.95;;;1.35;;
35298;SDS011;21415;48.054;16.646;2022-09-14T00:34:04;1.90;;;1.60;;
35298;SDS011;21415;48.054;16.646;2022-09-14T00:36:33;1.60;;;1.45;;
35298;SDS011;21415;48.054;16.646;2022-09-14T00:39:03;1.75;;;1.60;;
35298;SDS011;21415;48.054;16.646;2022-09-14T00:41:30;3.53;;;1.60;;
35298;SDS011;21415;48.054;16.646;2022-09-14T00:43:59;2.67;;;1.88;;
35298;SDS011;21415;48.054;16.646;2022-09-14T00:46:29;3.75;;;2.38;;
35298;SDS011;21415;48.054;16.646;2022-09-14T00:49:06;5.13;;;1.80;;
35298;SDS011;21415;48.054;16.646;2022-09-14T00:51:39;2.38;;;1.70;;
35298;SDS011;21415;48.054;16.646;2022-09-14T00:54:09;1.95;;;1.50;;
35298;SDS011;21415;48.054;16.646;2022-09-14T00:56:35;2.00;;;1.55;;
35298;SDS011;21415;48.054;16.646;2022-09-14T00:59:08;5.95;;;1.70;;
35298;SDS011;21415;48.054;16.646;2022-09-14T01:01:47;2.05;;;1.70;;
35298;SDS011;21415;48.054;16.646;2022-09-14T01:04:14;3.13;;;1.88;;
35298;SDS011;21415;48.054;16.646;2022-09-14T01:09:17;2.40;;;1.63;;
35298;SDS011;21415;48.054;16.646;2022-09-14T01:11:54;3.15;;;1.90;;
35298;SDS011;21415;48.054;16.646;2022-09-14T01:17:32;2.00;;;1.58;;
35298;SDS011;21415;48.054;16.646;2022-09-14T01:23:34;2.40;;;1.75;;
35298;SDS011;21415;48.054;16.646;2022-09-14T01:26:19;1.92;;;1.75;;
35298;SDS011;21415;48.054;16.646;2022-09-14T01:29:17;1.98;;;1.60;;
35298;SDS011;21415;48.054;16.646;2022-09-14T01:32:13;2.65;;;1.80;;
35298;SDS011;21415;48.054;16.646;2022-09-14T01:34:43;2.55;;;1.83;;
35298;SDS011;21415;48.054;16.646;2022-09-14T01:37:21;2.90;;;1.80;;
35298;SDS011;21415;48.054;16.646;2022-09-14T01:39:53;2.75;;;2.05;;
35298;SDS011;21415;48.054;16.646;2022-09-14T01:42:25;2.10;;;1.77;;
35298;SDS011;21415;48.054;16.646;2022-09-14T01:44:53;2.55;;;1.83;;
35298;SDS011;21415;48.054;16.646;2022-09-14T01:47:30;2.72;;;2.08;;
35298;SDS011;21415;48.054;16.646;2022-09-14T01:50:08;3.78;;;2.22;;
35298;SDS011;21415;48.054;16.646;2022-09-14T01:52:43;6.60;;;2.20;;
35298;SDS011;21415;48.054;16.646;2022-09-14T01:55:17;2.22;;;1.92;;
35298;SDS011;21415;48.054;16.646;2022-09-14T01:57:49;3.83;;;2.13;;
35298;SDS011;21415;48.054;16.646;2022-09-14T02:00:20;2.40;;;1.80;;
35298;SDS011;21415;48.054;16.646;2022-09-14T02:02:49;2.65;;;2.10;;
35298;SDS011;21415;48.054;16.646;2022-09-14T02:05:41;4.88;;;1.98;;
35298;SDS011;21415;48.054;16.646;2022-09-14T02:08:11;3.33;;;1.92;;
35298;SDS011;21415;48.054;16.646;2022-09-14T02:10:37;3.95;;;2.38;;
35298;SDS011;21415;48.054;16.646;2022-09-14T02:13:02;2.15;;;1.83;;
35298;SDS011;21415;48.054;16.646;2022-09-14T02:15:31;2.53;;;2.13;;
35298;SDS011;21415;48.054;16.646;2022-09-14T02:17:56;2.15;;;1.75;;
35298;SDS011;21415;48.054;16.646;2022-09-14T02:20:37;2.75;;;2.35;;
35298;SDS011;21415;48.054;16.646;2022-09-14T02:23:11;4.30;;;2.10;;
35298;SDS011;21415;48.054;16.646;2022-09-14T02:25:37;2.33;;;2.03;;
35298;SDS011;21415;48.054;16.646;2022-09-14T02:28:05;2.83;;;2.05;;
35298;SDS011;21415;48.054;16.646;2022-09-14T02:30:33;1.83;;;1.70;;
35298;SDS011;21415;48.054;16.646;2022-09-14T02:33:25;2.75;;;2.20;;
35298;SDS011;21415;48.054;16.646;2022-09-14T02:36:00;2.38;;;1.92;;
35298;SDS011;21415;48.054;16.646;2022-09-14T02:38:42;5.47;;;2.90;;
35298;SDS011;21415;48.054;16.646;2022-09-14T02:41:30;3.78;;;2.10;;
35298;SDS011;21415;48.054;16.646;2022-09-14T02:44:20;4.00;;;2.17;;
35298;SDS011;21415;48.054;16.646;2022-09-14T02:49:49;2.33;;;2.13;;
35298;SDS011;21415;48.054;16.646;2022-09-14T02:52:39;2.80;;;2.40;;
35298;SDS011;21415;48.054;16.646;2022-09-14T02:55:17;4.82;;;2.00;;
35298;SDS011;21415;48.054;16.646;2022-09-14T02:57:59;2.10;;;1.90;;
35298;SDS011;21415;48.054;16.646;2022-09-14T03:00:28;2.10;;;1.80;;
35298;SDS011;21415;48.054;16.646;2022-09-14T03:02:55;2.53;;;2.20;;
35298;SDS011;21415;48.054;16.646;2022-09-14T03:05:21;2.80;;;2.42;;
35298;SDS011;21415;48.054;16.646;2022-09-14T03:07:47;4.22;;;1.88;;
35298;SDS011;21415;48.054;16.646;2022-09-14T03:10:13;2.60;;;2.30;;
35298;SDS011;21415;48.054;16.646;2022-09-14T03:12:39;2.33;;;1.92;;
35298;SDS011;21415;48.054;16.646;2022-09-14T03:15:05;4.18;;;2.25;;
35298;SDS011;21415;48.054;16.646;2022-09-14T03:17:31;2.60;;;2.00;;
35298;SDS011;21415;48.054;16.646;2022-09-14T03:19:57;2.30;;;2.10;;
35298;SDS011;21415;48.054;16.646;2022-09-14T03:22:23;4.35;;;1.92;;
35298;SDS011;21415;48.054;16.646;2022-09-14T03:24:49;3.83;;;2.30;;
35298;SDS011;21415;48.054;16.646;2022-09-14T03:27:15;10.35;;;8.98;;
35298;SDS011;21415;48.054;16.646;2022-09-14T03:29:41;12.20;;;9.38;;
35298;SDS011;21415;48.054;16.646;2022-09-14T03:32:06;8.20;;;6.53;;
35298;SDS011;21415;48.054;16.646;2022-09-14T03:34:35;4.72;;;3.53;;
35298;SDS011;21415;48.054;16.646;2022-09-14T03:37:00;3.03;;;2.50;;
35298;SDS011;21415;48.054;16.646;2022-09-14T03:39:26;2.80;;;2.33;;
35298;SDS011;21415;48.054;16.646;2022-09-14T03:41:52;3.00;;;2.47;;
35298;SDS011;21415;48.054;16.646;2022-09-14T03:44:19;2.65;;;2.22;;
35298;SDS011;21415;48.054;16.646;2022-09-14T03:46:45;2.72;;;2.25;;
35298;SDS011;21415;48.054;16.646;2022-09-14T03:49:10;2.75;;;2.28;;
35298;SDS011;21415;48.054;16.646;2022-09-14T03:51:36;4.22;;;2.25;;
35298;SDS011;21415;48.054;16.646;2022-09-14T03:54:02;4.80;;;2.58;;
35298;SDS011;21415;48.054;16.646;2022-09-14T03:56:28;3.17;;;2.17;;
35298;SDS011;21415;48.054;16.646;2022-09-14T03:58:54;13.65;;;9.95;;
35298;SDS011;21415;48.054;16.646;2022-09-14T04:01:20;28.75;;;19.73;;
35298;SDS011;21415;48.054;16.646;2022-09-14T04:03:47;9.65;;;7.78;;
35298;SDS011;21415;48.054;16.646;2022-09-14T04:06:13;6.15;;;3.97;;
35298;SDS011;21415;48.054;16.646;2022-09-14T04:08:40;3.95;;;3.35;;
35298;SDS011;21415;48.054;16.646;2022-09-14T04:11:08;3.45;;;2.88;;
35298;SDS011;21415;48.054;16.646;2022-09-14T04:13:36;3.22;;;2.67;;
35298;SDS011;21415;48.054;16.646;2022-09-14T04:16:02;3.42;;;2.90;;
35298;SDS011;21415;48.054;16.646;2022-09-14T04:18:29;5.03;;;2.70;;
35298;SDS011;21415;48.054;16.646;2022-09-14T04:23:22;3.10;;;2.10;;
35298;SDS011;21415;48.054;16.646;2022-09-14T04:25:49;4.53;;;2.97;;
35298;SDS011;21415;48.054;16.646;2022-09-14T04:28:16;4.50;;;2.78;;
35298;SDS011;21415;48.054;16.646;2022-09-14T04:30:42;4.65;;;3.08;;
35298;SDS011;21415;48.054;16.646;2022-09-14T04:33:07;5.07;;;2.83;;
35298;SDS011;21415;48.054;16.646;2022-09-14T04:35:33;12.68;;;8.52;;
35298;SDS011;21415;48.054;16.646;2022-09-14T04:37:59;12.13;;;8.57;;
35298;SDS011;21415;48.054;16.646;2022-09-14T04:40:25;9.52;;;6.55;;
35298;SDS011;21415;48.054;16.646;2022-09-14T04:42:52;5.70;;;4.70;;
35298;SDS011;21415;48.054;16.646;2022-09-14T04:45:18;4.25;;;3.38;;
35298;SDS011;21415;48.054;16.646;2022-09-14T04:47:44;4.38;;;3.13;;
35298;SDS011;21415;48.054;16.646;2022-09-14T04:50:10;3.65;;;3.20;;
35298;SDS011;21415;48.054;16.646;2022-09-14T04:52:36;4.38;;;2.88;;
35298;SDS011;21415;48.054;16.646;2022-09-14T04:55:01;4.80;;;2.83;;
35298;SDS011;21415;48.054;16.646;2022-09-14T05:02:19;3.88;;;2.30;;
35298;SDS011;21415;48.054;16.646;2022-09-14T05:04:45;4.95;;;2.60;;
35298;SDS011;21415;48.054;16.646;2022-09-14T05:07:10;3.47;;;2.65;;
35298;SDS011;21415;48.054;16.646;2022-09-14T05:09:37;5.15;;;2.83;;
35298;SDS011;21415;48.054;16.646;2022-09-14T05:12:02;4.88;;;3.50;;
35298;SDS011;21415;48.054;16.646;2022-09-14T05:14:28;5.30;;;3.08;;
35298;SDS011;21415;48.054;16.646;2022-09-14T05:16:54;5.40;;;3.65;;
35298;SDS011;21415;48.054;16.646;2022-09-14T05:19:22;3.22;;;2.92;;
35298;SDS011;21415;48.054;16.646;2022-09-14T05:21:47;3.95;;;3.05;;
35298;SDS011;21415;48.054;16.646;2022-09-14T05:24:14;4.40;;;3.67;;
35298;SDS011;21415;48.054;16.646;2022-09-14T05:26:42;10.07;;;8.38;;
35298;SDS011;21415;48.054;16.646;2022-09-14T05:29:12;9.02;;;7.35;;
35298;SDS011;21415;48.054;16.646;2022-09-14T05:31:39;5.28;;;4.60;;
35298;SDS011;21415;48.054;16.646;2022-09-14T05:36:34;4.90;;;3.70;;
35298;SDS011;21415;48.054;16.646;2022-09-14T05:39:01;4.13;;;3.30;;
35298;SDS011;21415;48.054;16.646;2022-09-14T05:41:27;4.50;;;3.10;;
35298;SDS011;21415;48.054;16.646;2022-09-14T05:43:53;4.30;;;3.22;;
35298;SDS011;21415;48.054;16.646;2022-09-14T05:46:19;4.20;;;3.22;;
35298;SDS011;21415;48.054;16.646;2022-09-14T05:48:45;5.30;;;3.63;;
35298;SDS011;21415;48.054;16.646;2022-09-14T05:51:15;3.65;;;3.03;;
35298;SDS011;21415;48.054;16.646;2022-09-14T05:53:46;5.03;;;3.20;;
35298;SDS011;21415;48.054;16.646;2022-09-14T05:56:14;6.28;;;3.42;;
35298;SDS011;21415;48.054;16.646;2022-09-14T06:03:33;4.70;;;3.83;;
35298;SDS011;21415;48.054;16.646;2022-09-14T06:05:59;4.53;;;3.58;;
35298;SDS011;21415;48.054;16.646;2022-09-14T06:08:25;3.75;;;3.38;;
35298;SDS011;21415;48.054;16.646;2022-09-14T06:10:51;4.28;;;3.33;;
35298;SDS011;21415;48.054;16.646;2022-09-14T06:13:16;4.63;;;3.60;;
35298;SDS011;21415;48.054;16.646;2022-09-14T06:15:42;5.05;;;3.53;;
35298;SDS011;21415;48.054;16.646;2022-09-14T06:18:08;5.75;;;3.25;;
35298;SDS011;21415;48.054;16.646;2022-09-14T06:20:34;6.90;;;3.40;;
35298;SDS011;21415;48.054;16.646;2022-09-14T06:22:59;3.90;;;2.85;;
35298;SDS011;21415;48.054;16.646;2022-09-14T06:25:25;3.47;;;3.17;;
35298;SDS011;21415;48.054;16.646;2022-09-14T06:27:53;4.93;;;2.92;;
35298;SDS011;21415;48.054;16.646;2022-09-14T06:30:19;4.60;;;3.17;;
35298;SDS011;21415;48.054;16.646;2022-09-14T06:32:45;4.28;;;3.20;;
35298;SDS011;21415;48.054;16.646;2022-09-14T06:35:10;5.13;;;3.13;;
35298;SDS011;21415;48.054;16.646;2022-09-14T06:37:36;5.78;;;3.38;;
35298;SDS011;21415;48.054;16.646;2022-09-14T06:40:02;4.35;;;2.90;;
35298;SDS011;21415;48.054;16.646;2022-09-14T06:42:28;5.85;;;3.05;;
35298;SDS011;21415;48.054;16.646;2022-09-14T06:44:55;6.55;;;3.45;;
35298;SDS011;21415;48.054;16.646;2022-09-14T06:47:21;5.03;;;3.17;;
35298;SDS011;21415;48.054;16.646;2022-09-14T06:49:48;3.53;;;2.85;;
35298;SDS011;21415;48.054;16.646;2022-09-14T06:52:15;4.65;;;3.13;;
35298;SDS011;21415;48.054;16.646;2022-09-14T06:54:40;7.10;;;3.65;;
35298;SDS011;21415;48.054;16.646;2022-09-14T06:57:06;4.63;;;4.20;;
35298;SDS011;21415;48.054;16.646;2022-09-14T06:59:32;17.63;;;14.23;;
35298;SDS011;21415;48.054;16.646;2022-09-14T07:01:58;9.25;;;7.03;;
35298;SDS011;21415;48.054;16.646;2022-09-14T07:04:23;8.43;;;4.78;;
35298;SDS011;21415;48.054;16.646;2022-09-14T07:06:49;6.05;;;4.00;;
35298;SDS011;21415;48.054;16.646;2022-09-14T07:09:16;6.07;;;3.78;;
35298;SDS011;21415;48.054;16.646;2022-09-14T07:11:43;4.82;;;3.50;;
35298;SDS011;21415;48.054;16.646;2022-09-14T07:14:10;6.25;;;3.42;;
35298;SDS011;21415;48.054;16.646;2022-09-14T07:16:37;3.92;;;3.15;;
35298;SDS011;21415;48.054;16.646;2022-09-14T07:19:04;6.63;;;3.08;;
35298;SDS011;21415;48.054;16.646;2022-09-14T07:21:32;5.97;;;3.25;;
35298;SDS011;21415;48.054;16.646;2022-09-14T07:23:58;4.47;;;3.83;;
35298;SDS011;21415;48.054;16.646;2022-09-14T07:26:25;18.30;;;12.73;;
35298;SDS011;21415;48.054;16.646;2022-09-14T07:28:57;6.88;;;5.82;;
35298;SDS011;21415;48.054;16.646;2022-09-14T07:31:25;7.10;;;4.20;;
35298;SDS011;21415;48.054;16.646;2022-09-14T07:33:57;6.30;;;3.85;;
35298;SDS011;21415;48.054;16.646;2022-09-14T07:36:24;4.65;;;3.50;;
35298;SDS011;21415;48.054;16.646;2022-09-14T07:38:51;5.38;;;3.72;;
35298;SDS011;21415;48.054;16.646;2022-09-14T07:41:17;3.75;;;3.35;;
35298;SDS011;21415;48.054;16.646;2022-09-14T07:43:48;4.43;;;3.50;;
35298;SDS011;21415;48.054;16.646;2022-09-14T07:46:15;3.97;;;3.20;;
35298;SDS011;21415;48.054;16.646;2022-09-14T07:48:40;5.18;;;3.88;;
35298;SDS011;21415;48.054;16.646;2022-09-14T07:51:07;4.97;;;3.88;;
35298;SDS011;21415;48.054;16.646;2022-09-14T07:53:37;4.15;;;3.42;;
35298;SDS011;21415;48.054;16.646;2022-09-14T07:56:05;7.47;;;3.53;;
35298;SDS011;21415;48.054;16.646;2022-09-14T07:58:34;5.05;;;3.30;;
35298;SDS011;21415;48.054;16.646;2022-09-14T08:01:03;8.07;;;3.72;;
35298;SDS011;21415;48.054;16.646;2022-09-14T08:03:32;4.40;;;3.65;;
35298;SDS011;21415;48.054;16.646;2022-09-14T08:06:06;4.97;;;3.70;;
35298;SDS011;21415;48.054;16.646;2022-09-14T08:08:34;4.70;;;3.70;;
35298;SDS011;21415;48.054;16.646;2022-09-14T08:11:05;5.00;;;3.80;;
35298;SDS011;21415;48.054;16.646;2022-09-14T08:13:43;4.53;;;4.10;;
35298;SDS011;21415;48.054;16.646;2022-09-14T08:16:11;6.35;;;4.57;;
35298;SDS011;21415;48.054;16.646;2022-09-14T08:21:03;5.00;;;4.45;;
35298;SDS011;21415;48.054;16.646;2022-09-14T08:23:31;7.22;;;4.90;;
35298;SDS011;21415;48.054;16.646;2022-09-14T08:28:34;7.18;;;4.68;;
35298;SDS011;21415;48.054;16.646;2022-09-14T08:31:07;5.43;;;4.35;;
35298;SDS011;21415;48.054;16.646;2022-09-14T08:33:38;4.90;;;4.40;;
35298;SDS011;21415;48.054;16.646;2022-09-14T08:36:05;7.93;;;6.63;;
35298;SDS011;21415;48.054;16.646;2022-09-14T08:38:32;5.50;;;5.00;;
35298;SDS011;21415;48.054;16.646;2022-09-14T08:41:00;5.60;;;4.95;;
35298;SDS011;21415;48.054;16.646;2022-09-14T08:43:32;5.85;;;4.45;;
35298;SDS011;21415;48.054;16.646;2022-09-14T08:46:00;8.15;;;4.70;;
35298;SDS011;21415;48.054;16.646;2022-09-14T08:48:33;5.43;;;4.65;;
35298;SDS011;21415;48.054;16.646;2022-09-14T08:51:02;5.10;;;4.60;;
35298;SDS011;21415;48.054;16.646;2022-09-14T08:53:29;4.75;;;4.30;;
35298;SDS011;21415;48.054;16.646;2022-09-14T08:55:59;5.28;;;4.78;;
35298;SDS011;21415;48.054;16.646;2022-09-14T09:01:48;5.10;;;4.45;;
35298;SDS011;21415;48.054;16.646;2022-09-14T09:09:45;5.45;;;4.63;;
35298;SDS011;21415;48.054;16.646;2022-09-14T09:12:12;6.75;;;4.82;;
35298;SDS011;21415;48.054;16.646;2022-09-14T09:14:47;5.13;;;4.38;;
35298;SDS011;21415;48.054;16.646;2022-09-14T09:17:35;4.65;;;3.85;;
35298;SDS011;21415;48.054;16.646;2022-09-14T09:20:08;5.95;;;4.25;;
35298;SDS011;21415;48.054;16.646;2022-09-14T09:23:02;4.53;;;4.10;;
35298;SDS011;21415;48.054;16.646;2022-09-14T09:28:52;4.75;;;4.35;;
35298;SDS011;21415;48.054;16.646;2022-09-14T09:31:43;5.15;;;4.65;;
35298;SDS011;21415;48.054;16.646;2022-09-14T09:34:44;5.63;;;5.13;;
35298;SDS011;21415;48.054;16.646;2022-09-14T09:37:25;5.00;;;4.53;;
35298;SDS011;21415;48.054;16.646;2022-09-14T09:39:51;6.57;;;4.68;;
35298;SDS011;21415;48.054;16.646;2022-09-14T09:42:24;5.45;;;4.47;;
35298;SDS011;21415;48.054;16.646;2022-09-14T09:44:55;9.65;;;4.03;;
35298;SDS011;21415;48.054;16.646;2022-09-14T09:47:30;4.60;;;4.20;;
35298;SDS011;21415;48.054;16.646;2022-09-14T09:50:03;4.28;;;3.88;;
35298;SDS011;21415;48.054;16.646;2022-09-14T09:52:49;5.10;;;4.05;;
35298;SDS011;21415;48.054;16.646;2022-09-14T09:55:24;5.25;;;4.30;;
35298;SDS011;21415;48.054;16.646;2022-09-14T09:58:18;6.28;;;4.30;;
35298;SDS011;21415;48.054;16.646;2022-09-14T10:00:59;7.35;;;5.07;;
35298;SDS011;21415;48.054;16.646;2022-09-14T10:03:32;4.05;;;3.65;;
35298;SDS011;21415;48.054;16.646;2022-09-14T10:06:01;6.00;;;3.38;;
35298;SDS011;21415;48.054;16.646;2022-09-14T10:08:32;3.88;;;3.25;;
35298;SDS011;21415;48.054;16.646;2022-09-14T10:11:03;4.07;;;2.95;;
35298;SDS011;21415;48.054;16.646;2022-09-14T10:13:33;4.45;;;3.55;;
35298;SDS011;21415;48.054;16.646;2022-09-14T10:16:05;3.88;;;3.00;;
35298;SDS011;21415;48.054;16.646;2022-09-14T10:18:42;5.13;;;3.33;;
35298;SDS011;21415;48.054;16.646;2022-09-14T10:21:09;4.97;;;2.90;;
35298;SDS011;21415;48.054;16.646;2022-09-14T10:28:38;3.47;;;2.67;;
35298;SDS011;21415;48.054;16.646;2022-09-14T10:31:11;4.97;;;2.67;;
35298;SDS011;21415;48.054;16.646;2022-09-14T10:33:40;4.00;;;3.10;;
35298;SDS011;21415;48.054;16.646;2022-09-14T10:36:09;4.00;;;3.30;;
35298;SDS011;21415;48.054;16.646;2022-09-14T10:41:41;5.20;;;2.85;;
35298;SDS011;21415;48.054;16.646;2022-09-14T10:52:49;4.68;;;3.15;;
35298;SDS011;21415;48.054;16.646;2022-09-14T11:03:51;3.35;;;2.92;;
35298;SDS011;21415;48.054;16.646;2022-09-14T11:09:28;3.30;;;2.80;;
35298;SDS011;21415;48.054;16.646;2022-09-14T11:14:55;3.65;;;2.85;;
35298;SDS011;21415;48.054;16.646;2022-09-14T11:23:09;3.25;;;2.95;;
35298;SDS011;21415;48.054;16.646;2022-09-14T11:28:27;4.65;;;2.90;;
35298;SDS011;21415;48.054;16.646;2022-09-14T11:31:03;2.65;;;2.40;;
35298;SDS011;21415;48.054;16.646;2022-09-14T11:33:41;2.95;;;2.53;;
35298;SDS011;21415;48.054;16.646;2022-09-14T11:38:46;4.13;;;2.80;;
35298;SDS011;21415;48.054;16.646;2022-09-14T11:41:25;9.52;;;3.00;;
35298;SDS011;21415;48.054;16.646;2022-09-14T11:46:37;8.57;;;3.13;;
35298;SDS011;21415;48.054;16.646;2022-09-14T11:52:12;3.67;;;2.85;;
35298;SDS011;21415;48.054;16.646;2022-09-14T11:54:45;6.75;;;3.13;;
35298;SDS011;21415;48.054;16.646;2022-09-14T11:57:21;3.40;;;3.10;;
35298;SDS011;21415;48.054;16.646;2022-09-14T12:10:22;3.53;;;3.22;;
35298;SDS011;21415;48.054;16.646;2022-09-14T12:12:57;4.82;;;3.50;;
35298;SDS011;21415;48.054;16.646;2022-09-14T12:15:44;6.63;;;3.75;;
35298;SDS011;21415;48.054;16.646;2022-09-14T12:23:18;7.47;;;3.42;;
35298;SDS011;21415;48.054;16.646;2022-09-14T12:36:02;2.58;;;2.20;;
35298;SDS011;21415;48.054;16.646;2022-09-14T13:04:47;3.20;;;2.53;;
35298;SDS011;21415;48.054;16.646;2022-09-14T13:07:18;4.72;;;2.47;;
35298;SDS011;21415;48.054;16.646;2022-09-14T13:09:48;3.67;;;2.58;;
35298;SDS011;21415;48.054;16.646;2022-09-14T13:15:06;6.88;;;4.20;;
35298;SDS011;21415;48.054;16.646;2022-09-14T13:17:59;3.15;;;2.83;;
35298;SDS011;21415;48.054;16.646;2022-09-14T13:23:20;2.40;;;2.05;;
35298;SDS011;21415;48.054;16.646;2022-09-14T13:25:48;4.80;;;2.30;;
35298;SDS011;21415;48.054;16.646;2022-09-14T13:28:15;3.80;;;2.72;;
35298;SDS011;21415;48.054;16.646;2022-09-14T13:30:43;4.05;;;2.28;;
35298;SDS011;21415;48.054;16.646;2022-09-14T13:33:21;4.03;;;2.17;;
35298;SDS011;21415;48.054;16.646;2022-09-14T13:35:48;3.85;;;2.58;;
35298;SDS011;21415;48.054;16.646;2022-09-14T13:38:17;2.53;;;2.20;;
35298;SDS011;21415;48.054;16.646;2022-09-14T13:40:46;3.00;;;2.40;;
35298;SDS011;21415;48.054;16.646;2022-09-14T13:43:14;3.22;;;2.75;;
35298;SDS011;21415;48.054;16.646;2022-09-14T13:45:41;2.72;;;2.47;;
35298;SDS011;21415;48.054;16.646;2022-09-14T13:48:07;3.28;;;2.28;;
35298;SDS011;21415;48.054;16.646;2022-09-14T13:50:36;2.30;;;2.10;;
35298;SDS011;21415;48.054;16.646;2022-09-14T13:53:02;4.18;;;2.03;;
35298;SDS011;21415;48.054;16.646;2022-09-14T13:58:09;3.35;;;2.10;;
35298;SDS011;21415;48.054;16.646;2022-09-14T14:01:11;5.15;;;3.13;;
35298;SDS011;21415;48.054;16.646;2022-09-14T14:05:56;2.38;;;2.17;;
35298;SDS011;21415;48.054;16.646;2022-09-14T14:10:54;3.03;;;2.20;;
35298;SDS011;21415;48.054;16.646;2022-09-14T14:13:24;2.58;;;2.20;;
35298;SDS011;21415;48.054;16.646;2022-09-14T14:15:51;6.13;;;2.70;;
35298;SDS011;21415;48.054;16.646;2022-09-14T14:26:55;2.47;;;1.98;;
35298;SDS011;21415;48.054;16.646;2022-09-14T14:29:22;2.78;;;2.10;;
35298;SDS011;21415;48.054;16.646;2022-09-14T14:31:49;5.45;;;3.65;;
35298;SDS011;21415;48.054;16.646;2022-09-14T14:36:47;2.90;;;2.47;;
35298;SDS011;21415;48.054;16.646;2022-09-14T14:39:17;4.28;;;2.13;;
35298;SDS011;21415;48.054;16.646;2022-09-14T14:41:45;5.10;;;2.03;;
35298;SDS011;21415;48.054;16.646;2022-09-14T14:44:15;2.80;;;1.98;;
35298;SDS011;21415;48.054;16.646;2022-09-14T14:46:43;2.08;;;1.88;;
35298;SDS011;21415;48.054;16.646;2022-09-14T14:49:13;3.55;;;2.03;;
35298;SDS011;21415;48.054;16.646;2022-09-14T14:51:40;4.03;;;3.17;;
35298;SDS011;21415;48.054;16.646;2022-09-14T14:54:06;7.53;;;5.00;;
35298;SDS011;21415;48.054;16.646;2022-09-14T14:56:34;3.90;;;3.10;;
35298;SDS011;21415;48.054;16.646;2022-09-14T14:59:01;2.15;;;1.95;;
35298;SDS011;21415;48.054;16.646;2022-09-14T15:03:52;2.47;;;1.60;;
35298;SDS011;21415;48.054;16.646;2022-09-14T15:08:46;1.77;;;1.45;;
35298;SDS011;21415;48.054;16.646;2022-09-14T15:13:42;1.65;;;1.40;;
35298;SDS011;21415;48.054;16.646;2022-09-14T15:16:08;3.38;;;1.67;;
35298;SDS011;21415;48.054;16.646;2022-09-14T15:21:00;2.58;;;1.60;;
35298;SDS011;21415;48.054;16.646;2022-09-14T15:25:52;2.40;;;1.88;;
35298;SDS011;21415;48.054;16.646;2022-09-14T15:30:43;4.47;;;3.88;;
35298;SDS011;21415;48.054;16.646;2022-09-14T15:35:35;3.88;;;2.30;;
35298;SDS011;21415;48.054;16.646;2022-09-14T15:38:01;3.53;;;2.35;;
35298;SDS011;21415;48.054;16.646;2022-09-14T15:42:53;2.28;;;1.88;;
35298;SDS011;21415;48.054;16.646;2022-09-14T15:47:44;4.90;;;1.85;;
35298;SDS011;21415;48.054;16.646;2022-09-14T15:50:11;2.72;;;1.80;;
35298;SDS011;21415;48.054;16.646;2022-09-14T15:52:37;4.03;;;1.90;;
35298;SDS011;21415;48.054;16.646;2022-09-14T15:55:04;2.55;;;1.92;;
35298;SDS011;21415;48.054;16.646;2022-09-14T15:57:31;3.60;;;2.20;;
35298;SDS011;21415;48.054;16.646;2022-09-14T15:59:57;2.42;;;1.65;;
35298;SDS011;21415;48.054;16.646;2022-09-14T16:04:48;2.58;;;2.05;;
35298;SDS011;21415;48.054;16.646;2022-09-14T16:09:40;2.88;;;1.88;;
35298;SDS011;21415;48.054;16.646;2022-09-14T16:12:09;4.25;;;1.90;;
35298;SDS011;21415;48.054;16.646;2022-09-14T16:14:36;4.93;;;1.73;;
35298;SDS011;21415;48.054;16.646;2022-09-14T16:19:28;4.07;;;1.85;;
35298;SDS011;21415;48.054;16.646;2022-09-14T16:24:20;4.85;;;4.35;;
35298;SDS011;21415;48.054;16.646;2022-09-14T16:26:47;13.00;;;10.10;;
35298;SDS011;21415;48.054;16.646;2022-09-14T16:31:41;3.83;;;3.28;;
35298;SDS011;21415;48.054;16.646;2022-09-14T16:34:13;3.35;;;2.92;;
35298;SDS011;21415;48.054;16.646;2022-09-14T16:36:41;4.60;;;2.58;;
35298;SDS011;21415;48.054;16.646;2022-09-14T16:39:17;2.72;;;2.38;;
35298;SDS011;21415;48.054;16.646;2022-09-14T16:41:49;2.67;;;1.83;;
35298;SDS011;21415;48.054;16.646;2022-09-14T16:44:19;3.00;;;2.35;;
35298;SDS011;21415;48.054;16.646;2022-09-14T16:46:47;2.63;;;2.08;;
35298;SDS011;21415;48.054;16.646;2022-09-14T16:49:14;2.70;;;2.40;;
35298;SDS011;21415;48.054;16.646;2022-09-14T16:51:40;7.70;;;6.82;;
35298;SDS011;21415;48.054;16.646;2022-09-14T16:56:34;2.85;;;2.25;;
35298;SDS011;21415;48.054;16.646;2022-09-14T16:59:01;2.55;;;2.35;;
35298;SDS011;21415;48.054;16.646;2022-09-14T17:01:29;2.55;;;2.13;;
35298;SDS011;21415;48.054;16.646;2022-09-14T17:04:01;4.72;;;1.90;;
35298;SDS011;21415;48.054;16.646;2022-09-14T17:06:38;1.98;;;1.77;;
35298;SDS011;21415;48.054;16.646;2022-09-14T17:09:08;2.70;;;1.95;;
35298;SDS011;21415;48.054;16.646;2022-09-14T17:11:36;4.20;;;2.40;;
35298;SDS011;21415;48.054;16.646;2022-09-14T17:14:02;2.20;;;2.00;;
35298;SDS011;21415;48.054;16.646;2022-09-14T17:16:29;3.53;;;2.10;;
35298;SDS011;21415;48.054;16.646;2022-09-14T17:19:02;2.75;;;2.20;;
35298;SDS011;21415;48.054;16.646;2022-09-14T17:21:30;2.85;;;2.30;;
35298;SDS011;21415;48.054;16.646;2022-09-14T17:24:01;2.95;;;2.25;;
35298;SDS011;21415;48.054;16.646;2022-09-14T17:26:28;2.00;;;1.83;;
35298;SDS011;21415;48.054;16.646;2022-09-14T17:28:54;2.40;;;2.17;;
35298;SDS011;21415;48.054;16.646;2022-09-14T17:31:22;5.43;;;2.45;;
35298;SDS011;21415;48.054;16.646;2022-09-14T17:33:51;2.20;;;2.00;;
35298;SDS011;21415;48.054;16.646;2022-09-14T17:36:18;2.70;;;2.40;;
35298;SDS011;21415;48.054;16.646;2022-09-14T17:41:11;2.15;;;1.80;;
35298;SDS011;21415;48.054;16.646;2022-09-14T17:43:39;1.80;;;1.70;;
35298;SDS011;21415;48.054;16.646;2022-09-14T17:46:06;2.20;;;2.00;;
35298;SDS011;21415;48.054;16.646;2022-09-14T17:48:35;2.10;;;1.90;;
35298;SDS011;21415;48.054;16.646;2022-09-14T17:51:06;2.33;;;2.00;;
35298;SDS011;21415;48.054;16.646;2022-09-14T17:53:40;2.83;;;2.17;;
35298;SDS011;21415;48.054;16.646;2022-09-14T17:56:08;2.38;;;2.15;;
35298;SDS011;21415;48.054;16.646;2022-09-14T17:58:36;2.30;;;2.05;;
35298;SDS011;21415;48.054;16.646;2022-09-14T18:01:03;6.55;;;2.08;;
35298;SDS011;21415;48.054;16.646;2022-09-14T18:03:34;2.38;;;2.00;;
35298;SDS011;21415;48.054;16.646;2022-09-14T18:06:01;7.63;;;2.15;;
35298;SDS011;21415;48.054;16.646;2022-09-14T18:08:29;3.13;;;2.30;;
35298;SDS011;21415;48.054;16.646;2022-09-14T18:10:55;3.97;;;2.20;;
35298;SDS011;21415;48.054;16.646;2022-09-14T18:15:46;3.30;;;2.00;;
35298;SDS011;21415;48.054;16.646;2022-09-14T18:18:12;3.15;;;2.00;;